sensor_id;sensor_type;location;lat;lon;timestamp;P1;durP1;ratioP1;P2;durP2;ratioP2
15063;SDS011;7631;52.088;5.088;2022-11-24T00:02:21;4.83;;;2.13;;
15063;SDS011;7631;52.088;5.088;2022-11-24T00:04:46;7.07;;;2.83;;
15063;SDS011;7631;52.088;5.088;2022-11-24T00:07:11;5.13;;;2.03;;
15063;SDS011;7631;52.088;5.088;2022-11-24T00:09:36;6.33;;;2.30;;
15063;SDS011;7631;52.088;5.088;2022-11-24T00:12:02;5.90;;;2.20;;
15063;SDS011;7631;52.088;5.088;2022-11-24T00:14:27;7.80;;;2.77;;
15063;SDS011;7631;52.088;5.088;2022-11-24T00:16:52;5.90;;;2.40;;
15063;SDS011;7631;52.088;5.088;2022-11-24T00:19:18;7.30;;;2.63;;
15063;SDS011;7631;52.088;5.088;2022-11-24T00:21:43;5.40;;;2.13;;
15063;SDS011;7631;52.088;5.088;2022-11-24T00:24:08;6.27;;;2.40;;
15063;SDS011;7631;52.088;5.088;2022-11-24T00:26:34;5.77;;;2.17;;
15063;SDS011;7631;52.088;5.088;2022-11-24T00:29:01;4.67;;;2.17;;
15063;SDS011;7631;52.088;5.088;2022-11-24T00:31:28;7.87;;;2.50;;
15063;SDS011;7631;52.088;5.088;2022-11-24T00:33:55;6.20;;;2.10;;
15063;SDS011;7631;52.088;5.088;2022-11-24T00:36:21;4.63;;;2.10;;
15063;SDS011;7631;52.088;5.088;2022-11-24T00:38:47;5.30;;;2.23;;
15063;SDS011;7631;52.088;5.088;2022-11-24T00:41:12;4.30;;;1.90;;
15063;SDS011;7631;52.088;5.088;2022-11-24T00:43:37;7.97;;;2.40;;
15063;SDS011;7631;52.088;5.088;2022-11-24T00:46:03;4.10;;;2.07;;
15063;SDS011;7631;52.088;5.088;2022-11-24T00:48:28;4.40;;;1.83;;
15063;SDS011;7631;52.088;5.088;2022-11-24T00:50:55;7.87;;;2.53;;
15063;SDS011;7631;52.088;5.088;2022-11-24T00:53:20;2.97;;;1.70;;
15063;SDS011;7631;52.088;5.088;2022-11-24T00:55:47;3.33;;;1.80;;
15063;SDS011;7631;52.088;5.088;2022-11-24T00:58:13;4.67;;;2.00;;
15063;SDS011;7631;52.088;5.088;2022-11-24T01:00:38;6.23;;;2.23;;
15063;SDS011;7631;52.088;5.088;2022-11-24T01:03:03;4.43;;;2.10;;
15063;SDS011;7631;52.088;5.088;2022-11-24T01:05:28;5.37;;;2.13;;
15063;SDS011;7631;52.088;5.088;2022-11-24T01:07:54;4.40;;;2.07;;
15063;SDS011;7631;52.088;5.088;2022-11-24T01:10:19;4.17;;;2.30;;
15063;SDS011;7631;52.088;5.088;2022-11-24T01:12:44;4.83;;;2.33;;
15063;SDS011;7631;52.088;5.088;2022-11-24T01:15:09;4.23;;;2.00;;
15063;SDS011;7631;52.088;5.088;2022-11-24T01:17:34;5.90;;;2.17;;
15063;SDS011;7631;52.088;5.088;2022-11-24T01:20:00;5.60;;;2.10;;
15063;SDS011;7631;52.088;5.088;2022-11-24T01:22:25;3.93;;;1.80;;
15063;SDS011;7631;52.088;5.088;2022-11-24T01:24:51;4.70;;;2.07;;
15063;SDS011;7631;52.088;5.088;2022-11-24T01:27:16;6.30;;;2.00;;
15063;SDS011;7631;52.088;5.088;2022-11-24T01:29:41;5.53;;;1.93;;
15063;SDS011;7631;52.088;5.088;2022-11-24T01:32:07;6.37;;;2.60;;
15063;SDS011;7631;52.088;5.088;2022-11-24T01:34:32;5.20;;;2.10;;
15063;SDS011;7631;52.088;5.088;2022-11-24T01:36:57;3.83;;;1.87;;
15063;SDS011;7631;52.088;5.088;2022-11-24T01:39:22;4.70;;;1.87;;
15063;SDS011;7631;52.088;5.088;2022-11-24T01:41:47;4.63;;;1.70;;
15063;SDS011;7631;52.088;5.088;2022-11-24T01:44:23;3.80;;;1.77;;
15063;SDS011;7631;52.088;5.088;2022-11-24T01:46:50;4.80;;;1.90;;
15063;SDS011;7631;52.088;5.088;2022-11-24T01:49:17;5.17;;;2.00;;
15063;SDS011;7631;52.088;5.088;2022-11-24T01:51:47;3.80;;;1.80;;
15063;SDS011;7631;52.088;5.088;2022-11-24T01:54:15;6.10;;;2.27;;
15063;SDS011;7631;52.088;5.088;2022-11-24T01:56:42;4.73;;;1.73;;
15063;SDS011;7631;52.088;5.088;2022-11-24T01:59:10;5.43;;;2.00;;
15063;SDS011;7631;52.088;5.088;2022-11-24T02:01:36;3.70;;;1.70;;
15063;SDS011;7631;52.088;5.088;2022-11-24T02:04:02;6.47;;;2.00;;
15063;SDS011;7631;52.088;5.088;2022-11-24T02:06:30;4.03;;;1.93;;
15063;SDS011;7631;52.088;5.088;2022-11-24T02:08:57;5.00;;;1.80;;
15063;SDS011;7631;52.088;5.088;2022-11-24T02:11:25;5.63;;;2.07;;
15063;SDS011;7631;52.088;5.088;2022-11-24T02:13:51;4.03;;;1.87;;
15063;SDS011;7631;52.088;5.088;2022-11-24T02:16:17;4.27;;;2.00;;
15063;SDS011;7631;52.088;5.088;2022-11-24T02:18:42;4.50;;;2.03;;
15063;SDS011;7631;52.088;5.088;2022-11-24T02:21:09;4.10;;;1.63;;
15063;SDS011;7631;52.088;5.088;2022-11-24T02:23:56;4.43;;;2.00;;
15063;SDS011;7631;52.088;5.088;2022-11-24T02:26:27;4.03;;;1.60;;
15063;SDS011;7631;52.088;5.088;2022-11-24T02:28:53;4.40;;;1.80;;
15063;SDS011;7631;52.088;5.088;2022-11-24T02:31:19;4.47;;;1.80;;
15063;SDS011;7631;52.088;5.088;2022-11-24T02:33:44;6.00;;;2.00;;
15063;SDS011;7631;52.088;5.088;2022-11-24T02:36:10;4.07;;;1.80;;
15063;SDS011;7631;52.088;5.088;2022-11-24T02:38:35;6.57;;;1.73;;
15063;SDS011;7631;52.088;5.088;2022-11-24T02:41:10;4.27;;;1.90;;
15063;SDS011;7631;52.088;5.088;2022-11-24T02:43:37;5.33;;;2.00;;
15063;SDS011;7631;52.088;5.088;2022-11-24T02:46:03;3.00;;;1.43;;
15063;SDS011;7631;52.088;5.088;2022-11-24T02:48:28;4.20;;;1.60;;
15063;SDS011;7631;52.088;5.088;2022-11-24T02:50:54;6.40;;;2.10;;
15063;SDS011;7631;52.088;5.088;2022-11-24T02:53:19;6.60;;;2.47;;
15063;SDS011;7631;52.088;5.088;2022-11-24T02:55:44;7.20;;;2.17;;
15063;SDS011;7631;52.088;5.088;2022-11-24T02:58:09;4.53;;;1.60;;
15063;SDS011;7631;52.088;5.088;2022-11-24T03:00:35;4.60;;;1.87;;
15063;SDS011;7631;52.088;5.088;2022-11-24T03:03:00;4.80;;;1.70;;
15063;SDS011;7631;52.088;5.088;2022-11-24T03:05:25;6.13;;;1.70;;
15063;SDS011;7631;52.088;5.088;2022-11-24T03:07:50;5.80;;;2.07;;
15063;SDS011;7631;52.088;5.088;2022-11-24T03:10:16;5.40;;;1.80;;
15063;SDS011;7631;52.088;5.088;2022-11-24T03:12:41;5.30;;;1.67;;
15063;SDS011;7631;52.088;5.088;2022-11-24T03:15:06;5.57;;;1.70;;
15063;SDS011;7631;52.088;5.088;2022-11-24T03:17:32;4.63;;;1.63;;
15063;SDS011;7631;52.088;5.088;2022-11-24T03:19:57;3.23;;;1.33;;
15063;SDS011;7631;52.088;5.088;2022-11-24T03:22:24;4.57;;;1.67;;
15063;SDS011;7631;52.088;5.088;2022-11-24T03:24:50;5.30;;;1.77;;
15063;SDS011;7631;52.088;5.088;2022-11-24T03:27:15;4.73;;;1.50;;
15063;SDS011;7631;52.088;5.088;2022-11-24T03:29:40;4.30;;;1.60;;
15063;SDS011;7631;52.088;5.088;2022-11-24T03:32:05;3.47;;;1.30;;
15063;SDS011;7631;52.088;5.088;2022-11-24T03:34:31;4.17;;;1.47;;
15063;SDS011;7631;52.088;5.088;2022-11-24T03:36:56;3.73;;;1.53;;
15063;SDS011;7631;52.088;5.088;2022-11-24T03:39:22;3.43;;;1.40;;
15063;SDS011;7631;52.088;5.088;2022-11-24T03:41:47;5.63;;;1.87;;
15063;SDS011;7631;52.088;5.088;2022-11-24T03:44:15;3.03;;;1.60;;
15063;SDS011;7631;52.088;5.088;2022-11-24T03:46:40;4.67;;;1.50;;
15063;SDS011;7631;52.088;5.088;2022-11-24T03:49:05;2.67;;;1.30;;
15063;SDS011;7631;52.088;5.088;2022-11-24T03:51:31;2.97;;;1.20;;
15063;SDS011;7631;52.088;5.088;2022-11-24T03:53:56;4.67;;;1.73;;
15063;SDS011;7631;52.088;5.088;2022-11-24T03:56:21;2.43;;;1.13;;
15063;SDS011;7631;52.088;5.088;2022-11-24T03:58:46;4.00;;;1.40;;
15063;SDS011;7631;52.088;5.088;2022-11-24T04:01:11;4.63;;;1.57;;
15063;SDS011;7631;52.088;5.088;2022-11-24T04:03:37;3.20;;;1.27;;
15063;SDS011;7631;52.088;5.088;2022-11-24T04:06:02;3.13;;;1.20;;
15063;SDS011;7631;52.088;5.088;2022-11-24T04:08:27;3.27;;;1.63;;
15063;SDS011;7631;52.088;5.088;2022-11-24T04:10:53;6.43;;;1.80;;
15063;SDS011;7631;52.088;5.088;2022-11-24T04:13:19;4.90;;;2.13;;
15063;SDS011;7631;52.088;5.088;2022-11-24T04:15:44;3.50;;;1.60;;
15063;SDS011;7631;52.088;5.088;2022-11-24T04:18:10;4.47;;;1.43;;
15063;SDS011;7631;52.088;5.088;2022-11-24T04:20:35;5.33;;;1.80;;
15063;SDS011;7631;52.088;5.088;2022-11-24T04:23:00;2.33;;;1.50;;
15063;SDS011;7631;52.088;5.088;2022-11-24T04:25:26;5.67;;;1.83;;
15063;SDS011;7631;52.088;5.088;2022-11-24T04:27:52;3.77;;;1.40;;
15063;SDS011;7631;52.088;5.088;2022-11-24T04:30:18;4.60;;;1.70;;
15063;SDS011;7631;52.088;5.088;2022-11-24T04:32:43;5.50;;;1.70;;
15063;SDS011;7631;52.088;5.088;2022-11-24T04:35:09;8.07;;;2.10;;
15063;SDS011;7631;52.088;5.088;2022-11-24T04:37:34;7.40;;;1.70;;
15063;SDS011;7631;52.088;5.088;2022-11-24T04:39:59;5.20;;;1.60;;
15063;SDS011;7631;52.088;5.088;2022-11-24T04:42:24;4.40;;;1.57;;
15063;SDS011;7631;52.088;5.088;2022-11-24T04:44:50;5.00;;;1.53;;
15063;SDS011;7631;52.088;5.088;2022-11-24T04:47:22;3.87;;;1.50;;
15063;SDS011;7631;52.088;5.088;2022-11-24T04:49:47;5.30;;;1.57;;
15063;SDS011;7631;52.088;5.088;2022-11-24T04:52:13;5.53;;;1.80;;
15063;SDS011;7631;52.088;5.088;2022-11-24T04:54:38;3.13;;;1.47;;
15063;SDS011;7631;52.088;5.088;2022-11-24T04:57:03;4.23;;;1.70;;
15063;SDS011;7631;52.088;5.088;2022-11-24T04:59:28;4.73;;;1.57;;
15063;SDS011;7631;52.088;5.088;2022-11-24T05:01:54;7.43;;;1.93;;
15063;SDS011;7631;52.088;5.088;2022-11-24T05:04:19;6.23;;;2.17;;
15063;SDS011;7631;52.088;5.088;2022-11-24T05:06:45;3.70;;;1.67;;
15063;SDS011;7631;52.088;5.088;2022-11-24T05:09:12;4.97;;;1.40;;
15063;SDS011;7631;52.088;5.088;2022-11-24T05:11:37;4.47;;;1.37;;
15063;SDS011;7631;52.088;5.088;2022-11-24T05:14:03;4.57;;;1.90;;
15063;SDS011;7631;52.088;5.088;2022-11-24T05:16:28;2.93;;;1.10;;
15063;SDS011;7631;52.088;5.088;2022-11-24T05:18:53;4.37;;;1.63;;
15063;SDS011;7631;52.088;5.088;2022-11-24T05:21:18;3.50;;;1.40;;
15063;SDS011;7631;52.088;5.088;2022-11-24T05:23:43;6.07;;;2.30;;
15063;SDS011;7631;52.088;5.088;2022-11-24T05:26:09;5.13;;;1.30;;
15063;SDS011;7631;52.088;5.088;2022-11-24T05:28:34;2.23;;;1.30;;
15063;SDS011;7631;52.088;5.088;2022-11-24T05:31:02;3.17;;;1.40;;
15063;SDS011;7631;52.088;5.088;2022-11-24T05:33:28;3.93;;;1.50;;
15063;SDS011;7631;52.088;5.088;2022-11-24T05:35:54;1.73;;;1.13;;
15063;SDS011;7631;52.088;5.088;2022-11-24T05:38:19;1.90;;;1.20;;
15063;SDS011;7631;52.088;5.088;2022-11-24T05:40:46;2.63;;;1.10;;
15063;SDS011;7631;52.088;5.088;2022-11-24T05:43:12;3.27;;;1.10;;
15063;SDS011;7631;52.088;5.088;2022-11-24T05:45:37;1.97;;;1.13;;
15063;SDS011;7631;52.088;5.088;2022-11-24T05:48:04;3.53;;;1.17;;
15063;SDS011;7631;52.088;5.088;2022-11-24T05:50:29;3.23;;;1.10;;
15063;SDS011;7631;52.088;5.088;2022-11-24T05:52:54;2.93;;;1.27;;
15063;SDS011;7631;52.088;5.088;2022-11-24T05:55:20;2.70;;;1.33;;
15063;SDS011;7631;52.088;5.088;2022-11-24T05:57:45;2.40;;;1.37;;
15063;SDS011;7631;52.088;5.088;2022-11-24T06:00:10;2.53;;;1.00;;
15063;SDS011;7631;52.088;5.088;2022-11-24T06:02:36;1.67;;;1.10;;
15063;SDS011;7631;52.088;5.088;2022-11-24T06:05:01;2.27;;;0.93;;
15063;SDS011;7631;52.088;5.088;2022-11-24T06:07:26;3.57;;;1.20;;
15063;SDS011;7631;52.088;5.088;2022-11-24T06:09:51;2.50;;;1.10;;
15063;SDS011;7631;52.088;5.088;2022-11-24T06:12:17;2.47;;;0.93;;
15063;SDS011;7631;52.088;5.088;2022-11-24T06:14:42;2.70;;;1.20;;
15063;SDS011;7631;52.088;5.088;2022-11-24T06:17:11;2.10;;;0.90;;
15063;SDS011;7631;52.088;5.088;2022-11-24T06:19:36;2.63;;;0.90;;
15063;SDS011;7631;52.088;5.088;2022-11-24T06:22:02;1.40;;;0.77;;
15063;SDS011;7631;52.088;5.088;2022-11-24T06:24:27;1.80;;;0.80;;
15063;SDS011;7631;52.088;5.088;2022-11-24T06:26:52;2.37;;;0.80;;
15063;SDS011;7631;52.088;5.088;2022-11-24T06:29:17;2.00;;;0.80;;
15063;SDS011;7631;52.088;5.088;2022-11-24T06:31:42;1.77;;;0.87;;
15063;SDS011;7631;52.088;5.088;2022-11-24T06:34:08;2.13;;;0.90;;
15063;SDS011;7631;52.088;5.088;2022-11-24T06:36:35;2.00;;;1.13;;
15063;SDS011;7631;52.088;5.088;2022-11-24T06:39:01;2.07;;;0.80;;
15063;SDS011;7631;52.088;5.088;2022-11-24T06:41:26;1.90;;;0.90;;
15063;SDS011;7631;52.088;5.088;2022-11-24T06:43:52;2.63;;;1.30;;
15063;SDS011;7631;52.088;5.088;2022-11-24T06:46:17;2.97;;;1.23;;
15063;SDS011;7631;52.088;5.088;2022-11-24T06:48:42;1.47;;;1.10;;
15063;SDS011;7631;52.088;5.088;2022-11-24T06:51:09;2.90;;;1.30;;
15063;SDS011;7631;52.088;5.088;2022-11-24T06:53:36;1.80;;;1.10;;
15063;SDS011;7631;52.088;5.088;2022-11-24T06:56:02;1.77;;;1.13;;
15063;SDS011;7631;52.088;5.088;2022-11-24T06:58:28;2.73;;;1.60;;
15063;SDS011;7631;52.088;5.088;2022-11-24T07:00:53;3.77;;;1.40;;
15063;SDS011;7631;52.088;5.088;2022-11-24T07:03:18;2.57;;;1.77;;
15063;SDS011;7631;52.088;5.088;2022-11-24T07:05:44;2.10;;;1.20;;
15063;SDS011;7631;52.088;5.088;2022-11-24T07:08:09;2.47;;;1.20;;
15063;SDS011;7631;52.088;5.088;2022-11-24T07:10:34;3.53;;;1.57;;
15063;SDS011;7631;52.088;5.088;2022-11-24T07:13:00;3.17;;;1.53;;
15063;SDS011;7631;52.088;5.088;2022-11-24T07:15:27;3.03;;;1.83;;
15063;SDS011;7631;52.088;5.088;2022-11-24T07:17:53;2.07;;;1.40;;
15063;SDS011;7631;52.088;5.088;2022-11-24T07:20:18;3.00;;;1.33;;
15063;SDS011;7631;52.088;5.088;2022-11-24T07:22:43;3.27;;;1.60;;
15063;SDS011;7631;52.088;5.088;2022-11-24T07:25:08;1.70;;;1.50;;
15063;SDS011;7631;52.088;5.088;2022-11-24T07:27:34;1.90;;;1.27;;
15063;SDS011;7631;52.088;5.088;2022-11-24T07:29:59;2.10;;;1.53;;
15063;SDS011;7631;52.088;5.088;2022-11-24T07:32:24;2.67;;;1.30;;
15063;SDS011;7631;52.088;5.088;2022-11-24T07:34:50;3.33;;;1.53;;
15063;SDS011;7631;52.088;5.088;2022-11-24T07:37:15;2.50;;;1.40;;
15063;SDS011;7631;52.088;5.088;2022-11-24T07:39:40;2.60;;;1.37;;
15063;SDS011;7631;52.088;5.088;2022-11-24T07:42:05;2.83;;;1.70;;
15063;SDS011;7631;52.088;5.088;2022-11-24T07:44:32;1.77;;;1.30;;
15063;SDS011;7631;52.088;5.088;2022-11-24T07:46:57;4.23;;;1.53;;
15063;SDS011;7631;52.088;5.088;2022-11-24T07:49:22;2.97;;;1.50;;
15063;SDS011;7631;52.088;5.088;2022-11-24T07:51:48;4.63;;;1.50;;
15063;SDS011;7631;52.088;5.088;2022-11-24T07:54:13;3.77;;;1.73;;
15063;SDS011;7631;52.088;5.088;2022-11-24T07:56:38;2.03;;;1.50;;
15063;SDS011;7631;52.088;5.088;2022-11-24T07:59:03;3.30;;;2.23;;
15063;SDS011;7631;52.088;5.088;2022-11-24T08:01:29;2.50;;;1.60;;
15063;SDS011;7631;52.088;5.088;2022-11-24T08:03:54;3.57;;;2.00;;
15063;SDS011;7631;52.088;5.088;2022-11-24T08:06:19;3.73;;;1.80;;
15063;SDS011;7631;52.088;5.088;2022-11-24T08:08:45;3.60;;;2.10;;
15063;SDS011;7631;52.088;5.088;2022-11-24T08:11:11;2.80;;;1.70;;
15063;SDS011;7631;52.088;5.088;2022-11-24T08:13:36;2.43;;;1.80;;
15063;SDS011;7631;52.088;5.088;2022-11-24T08:16:02;2.60;;;1.40;;
15063;SDS011;7631;52.088;5.088;2022-11-24T08:18:27;2.10;;;1.60;;
15063;SDS011;7631;52.088;5.088;2022-11-24T08:20:53;2.07;;;1.47;;
15063;SDS011;7631;52.088;5.088;2022-11-24T08:23:18;2.90;;;1.60;;
15063;SDS011;7631;52.088;5.088;2022-11-24T08:25:43;3.47;;;1.80;;
15063;SDS011;7631;52.088;5.088;2022-11-24T08:28:09;3.00;;;1.83;;
15063;SDS011;7631;52.088;5.088;2022-11-24T08:30:34;2.73;;;1.70;;
15063;SDS011;7631;52.088;5.088;2022-11-24T08:32:59;2.37;;;1.73;;
15063;SDS011;7631;52.088;5.088;2022-11-24T08:35:25;1.80;;;1.50;;
15063;SDS011;7631;52.088;5.088;2022-11-24T08:37:50;2.17;;;1.63;;
15063;SDS011;7631;52.088;5.088;2022-11-24T08:40:15;2.33;;;1.60;;
15063;SDS011;7631;52.088;5.088;2022-11-24T08:42:41;2.23;;;1.53;;
15063;SDS011;7631;52.088;5.088;2022-11-24T08:45:06;2.60;;;1.60;;
15063;SDS011;7631;52.088;5.088;2022-11-24T08:47:31;3.27;;;1.80;;
15063;SDS011;7631;52.088;5.088;2022-11-24T08:49:56;2.07;;;1.60;;
15063;SDS011;7631;52.088;5.088;2022-11-24T08:52:22;3.50;;;1.60;;
15063;SDS011;7631;52.088;5.088;2022-11-24T08:54:47;2.43;;;1.63;;
15063;SDS011;7631;52.088;5.088;2022-11-24T08:57:13;2.63;;;1.50;;
15063;SDS011;7631;52.088;5.088;2022-11-24T08:59:38;5.27;;;1.70;;
15063;SDS011;7631;52.088;5.088;2022-11-24T09:02:03;2.67;;;1.40;;
15063;SDS011;7631;52.088;5.088;2022-11-24T09:04:28;2.37;;;1.40;;
15063;SDS011;7631;52.088;5.088;2022-11-24T09:06:54;2.53;;;1.27;;
15063;SDS011;7631;52.088;5.088;2022-11-24T09:09:19;3.13;;;1.70;;
15063;SDS011;7631;52.088;5.088;2022-11-24T09:11:44;3.37;;;1.80;;
15063;SDS011;7631;52.088;5.088;2022-11-24T09:14:09;2.60;;;1.40;;
15063;SDS011;7631;52.088;5.088;2022-11-24T09:16:35;2.63;;;1.50;;
15063;SDS011;7631;52.088;5.088;2022-11-24T09:19:01;3.67;;;1.47;;
15063;SDS011;7631;52.088;5.088;2022-11-24T09:21:26;3.07;;;1.47;;
15063;SDS011;7631;52.088;5.088;2022-11-24T09:23:52;2.87;;;1.53;;
15063;SDS011;7631;52.088;5.088;2022-11-24T09:26:19;2.07;;;1.50;;
15063;SDS011;7631;52.088;5.088;2022-11-24T09:28:44;2.10;;;1.40;;
15063;SDS011;7631;52.088;5.088;2022-11-24T09:31:11;3.77;;;1.60;;
15063;SDS011;7631;52.088;5.088;2022-11-24T09:33:36;2.77;;;1.37;;
15063;SDS011;7631;52.088;5.088;2022-11-24T09:36:02;2.67;;;1.50;;
15063;SDS011;7631;52.088;5.088;2022-11-24T09:38:27;3.27;;;1.60;;
15063;SDS011;7631;52.088;5.088;2022-11-24T09:40:53;2.03;;;1.37;;
15063;SDS011;7631;52.088;5.088;2022-11-24T09:46:10;1.43;;;1.00;;
15063;SDS011;7631;52.088;5.088;2022-11-24T09:48:46;3.07;;;1.43;;
15063;SDS011;7631;52.088;5.088;2022-11-24T09:51:13;2.60;;;1.13;;
15063;SDS011;7631;52.088;5.088;2022-11-24T09:56:11;2.40;;;1.27;;
15063;SDS011;7631;52.088;5.088;2022-11-24T10:01:14;3.73;;;1.30;;
15063;SDS011;7631;52.088;5.088;2022-11-24T10:03:41;3.17;;;1.40;;
15063;SDS011;7631;52.088;5.088;2022-11-24T10:06:18;3.40;;;1.40;;
15063;SDS011;7631;52.088;5.088;2022-11-24T10:11:29;3.67;;;1.40;;
15063;SDS011;7631;52.088;5.088;2022-11-24T10:14:03;2.57;;;1.30;;
15063;SDS011;7631;52.088;5.088;2022-11-24T10:19:10;2.97;;;1.70;;
15063;SDS011;7631;52.088;5.088;2022-11-24T10:21:46;3.17;;;1.30;;
15063;SDS011;7631;52.088;5.088;2022-11-24T10:27:21;3.10;;;1.53;;
15063;SDS011;7631;52.088;5.088;2022-11-24T10:29:41;3.00;;;1.47;;
15063;SDS011;7631;52.088;5.088;2022-11-24T10:32:11;4.70;;;2.20;;
15063;SDS011;7631;52.088;5.088;2022-11-24T10:34:40;3.80;;;1.77;;
15063;SDS011;7631;52.088;5.088;2022-11-24T10:39:37;3.47;;;1.20;;
15063;SDS011;7631;52.088;5.088;2022-11-24T10:42:11;3.93;;;1.50;;
15063;SDS011;7631;52.088;5.088;2022-11-24T10:44:38;3.97;;;1.50;;
15063;SDS011;7631;52.088;5.088;2022-11-24T10:47:04;4.70;;;1.77;;
15063;SDS011;7631;52.088;5.088;2022-11-24T10:49:36;3.13;;;1.30;;
15063;SDS011;7631;52.088;5.088;2022-11-24T10:52:14;4.77;;;1.70;;
15063;SDS011;7631;52.088;5.088;2022-11-24T10:55:13;6.33;;;1.80;;
15063;SDS011;7631;52.088;5.088;2022-11-24T10:59:57;5.60;;;1.87;;
15063;SDS011;7631;52.088;5.088;2022-11-24T11:04:54;5.10;;;1.63;;
15063;SDS011;7631;52.088;5.088;2022-11-24T11:07:20;4.90;;;1.57;;
15063;SDS011;7631;52.088;5.088;2022-11-24T11:09:46;4.47;;;1.67;;
15063;SDS011;7631;52.088;5.088;2022-11-24T11:12:19;5.27;;;1.77;;
15063;SDS011;7631;52.088;5.088;2022-11-24T11:14:45;5.50;;;1.90;;
15063;SDS011;7631;52.088;5.088;2022-11-24T11:17:33;4.80;;;1.70;;
15063;SDS011;7631;52.088;5.088;2022-11-24T11:20:31;4.40;;;1.40;;
15063;SDS011;7631;52.088;5.088;2022-11-24T11:22:49;4.37;;;1.70;;
15063;SDS011;7631;52.088;5.088;2022-11-24T11:25:19;3.10;;;1.50;;
15063;SDS011;7631;52.088;5.088;2022-11-24T11:27:46;6.23;;;1.87;;
15063;SDS011;7631;52.088;5.088;2022-11-24T11:32:37;2.57;;;1.17;;
15063;SDS011;7631;52.088;5.088;2022-11-24T11:35:14;4.83;;;1.67;;
15063;SDS011;7631;52.088;5.088;2022-11-24T11:37:39;4.00;;;1.50;;
15063;SDS011;7631;52.088;5.088;2022-11-24T11:40:04;4.03;;;1.33;;
15063;SDS011;7631;52.088;5.088;2022-11-24T11:47:35;4.50;;;1.83;;
15063;SDS011;7631;52.088;5.088;2022-11-24T11:50:10;6.07;;;1.57;;
15063;SDS011;7631;52.088;5.088;2022-11-24T11:55:16;5.57;;;2.10;;
15063;SDS011;7631;52.088;5.088;2022-11-24T12:00:30;4.67;;;1.70;;
15063;SDS011;7631;52.088;5.088;2022-11-24T12:05:46;5.50;;;1.83;;
15063;SDS011;7631;52.088;5.088;2022-11-24T12:08:22;6.77;;;1.93;;
15063;SDS011;7631;52.088;5.088;2022-11-24T12:15:52;6.37;;;2.00;;
15063;SDS011;7631;52.088;5.088;2022-11-24T12:20:53;6.07;;;1.73;;
15063;SDS011;7631;52.088;5.088;2022-11-24T12:25:50;4.60;;;1.93;;
15063;SDS011;7631;52.088;5.088;2022-11-24T12:31:03;5.93;;;1.97;;
15063;SDS011;7631;52.088;5.088;2022-11-24T12:36:15;4.90;;;1.90;;
15063;SDS011;7631;52.088;5.088;2022-11-24T12:39:00;4.50;;;1.60;;
15063;SDS011;7631;52.088;5.088;2022-11-24T12:41:53;4.23;;;1.43;;
15063;SDS011;7631;52.088;5.088;2022-11-24T12:44:28;4.93;;;1.53;;
15063;SDS011;7631;52.088;5.088;2022-11-24T12:47:09;6.03;;;2.17;;
15063;SDS011;7631;52.088;5.088;2022-11-24T12:49:48;5.00;;;1.97;;
15063;SDS011;7631;52.088;5.088;2022-11-24T12:52:22;7.10;;;2.20;;
15063;SDS011;7631;52.088;5.088;2022-11-24T12:54:49;4.40;;;1.67;;
15063;SDS011;7631;52.088;5.088;2022-11-24T12:57:26;4.40;;;1.70;;
15063;SDS011;7631;52.088;5.088;2022-11-24T13:00:00;5.40;;;1.90;;
15063;SDS011;7631;52.088;5.088;2022-11-24T13:15:19;4.53;;;1.77;;
15063;SDS011;7631;52.088;5.088;2022-11-24T13:17:45;5.07;;;1.77;;
15063;SDS011;7631;52.088;5.088;2022-11-24T13:22:48;4.77;;;1.83;;
15063;SDS011;7631;52.088;5.088;2022-11-24T13:27:43;4.90;;;2.17;;
15063;SDS011;7631;52.088;5.088;2022-11-24T13:35:39;4.87;;;2.07;;
15063;SDS011;7631;52.088;5.088;2022-11-24T13:40:49;4.57;;;1.77;;
15063;SDS011;7631;52.088;5.088;2022-11-24T13:53:22;5.60;;;1.80;;
15063;SDS011;7631;52.088;5.088;2022-11-24T13:55:54;6.30;;;1.90;;
15063;SDS011;7631;52.088;5.088;2022-11-24T13:58:37;4.50;;;2.00;;
15063;SDS011;7631;52.088;5.088;2022-11-24T14:03:40;7.57;;;2.20;;
15063;SDS011;7631;52.088;5.088;2022-11-24T14:06:05;4.37;;;1.73;;
15063;SDS011;7631;52.088;5.088;2022-11-24T14:08:38;5.43;;;2.00;;
15063;SDS011;7631;52.088;5.088;2022-11-24T14:11:10;5.17;;;1.93;;
15063;SDS011;7631;52.088;5.088;2022-11-24T14:13:36;5.87;;;2.07;;
15063;SDS011;7631;52.088;5.088;2022-11-24T14:18:30;4.43;;;1.90;;
15063;SDS011;7631;52.088;5.088;2022-11-24T14:20:58;5.87;;;1.77;;
15063;SDS011;7631;52.088;5.088;2022-11-24T14:23:24;5.23;;;2.00;;
15063;SDS011;7631;52.088;5.088;2022-11-24T14:25:50;3.47;;;1.50;;
15063;SDS011;7631;52.088;5.088;2022-11-24T14:30:46;4.47;;;1.60;;
15063;SDS011;7631;52.088;5.088;2022-11-24T14:33:12;4.27;;;1.47;;
15063;SDS011;7631;52.088;5.088;2022-11-24T14:35:42;5.47;;;2.00;;
15063;SDS011;7631;52.088;5.088;2022-11-24T14:38:07;4.63;;;1.80;;
15063;SDS011;7631;52.088;5.088;2022-11-24T14:40:40;3.83;;;1.90;;
15063;SDS011;7631;52.088;5.088;2022-11-24T14:45:50;5.07;;;1.83;;
15063;SDS011;7631;52.088;5.088;2022-11-24T14:48:17;3.80;;;1.90;;
15063;SDS011;7631;52.088;5.088;2022-11-24T14:50:44;4.33;;;1.60;;
15063;SDS011;7631;52.088;5.088;2022-11-24T14:53:11;2.97;;;1.43;;
15063;SDS011;7631;52.088;5.088;2022-11-24T14:55:37;3.30;;;1.43;;
15063;SDS011;7631;52.088;5.088;2022-11-24T14:58:17;4.97;;;1.60;;
15063;SDS011;7631;52.088;5.088;2022-11-24T15:00:43;4.17;;;1.90;;
15063;SDS011;7631;52.088;5.088;2022-11-24T15:03:13;5.80;;;1.80;;
15063;SDS011;7631;52.088;5.088;2022-11-24T15:05:56;3.30;;;1.30;;
15063;SDS011;7631;52.088;5.088;2022-11-24T15:08:23;3.63;;;1.77;;
15063;SDS011;7631;52.088;5.088;2022-11-24T15:10:53;3.90;;;1.70;;
15063;SDS011;7631;52.088;5.088;2022-11-24T15:13:19;6.07;;;1.90;;
15063;SDS011;7631;52.088;5.088;2022-11-24T15:15:55;4.20;;;2.10;;
15063;SDS011;7631;52.088;5.088;2022-11-24T15:21:06;4.93;;;1.90;;
15063;SDS011;7631;52.088;5.088;2022-11-24T15:23:32;5.30;;;1.57;;
15063;SDS011;7631;52.088;5.088;2022-11-24T15:28:27;4.03;;;1.20;;
15063;SDS011;7631;52.088;5.088;2022-11-24T15:30:54;7.33;;;1.77;;
15063;SDS011;7631;52.088;5.088;2022-11-24T15:33:20;3.50;;;1.60;;
15063;SDS011;7631;52.088;5.088;2022-11-24T15:35:46;7.50;;;1.80;;
15063;SDS011;7631;52.088;5.088;2022-11-24T15:38:12;4.00;;;1.40;;
15063;SDS011;7631;52.088;5.088;2022-11-24T15:40:37;3.57;;;1.53;;
15063;SDS011;7631;52.088;5.088;2022-11-24T15:43:11;4.80;;;1.77;;
15063;SDS011;7631;52.088;5.088;2022-11-24T15:45:39;4.40;;;1.43;;
15063;SDS011;7631;52.088;5.088;2022-11-24T15:48:04;4.70;;;1.57;;
15063;SDS011;7631;52.088;5.088;2022-11-24T15:50:29;6.67;;;1.77;;
15063;SDS011;7631;52.088;5.088;2022-11-24T15:52:54;4.73;;;1.77;;
15063;SDS011;7631;52.088;5.088;2022-11-24T15:55:21;4.10;;;1.43;;
15063;SDS011;7631;52.088;5.088;2022-11-24T15:57:46;3.13;;;1.57;;
15063;SDS011;7631;52.088;5.088;2022-11-24T16:00:12;5.60;;;2.03;;
15063;SDS011;7631;52.088;5.088;2022-11-24T16:02:38;5.30;;;1.70;;
15063;SDS011;7631;52.088;5.088;2022-11-24T16:05:03;3.47;;;1.63;;
15063;SDS011;7631;52.088;5.088;2022-11-24T16:07:28;4.87;;;1.83;;
15063;SDS011;7631;52.088;5.088;2022-11-24T16:09:55;3.20;;;1.50;;
15063;SDS011;7631;52.088;5.088;2022-11-24T16:12:21;4.30;;;1.50;;
15063;SDS011;7631;52.088;5.088;2022-11-24T16:14:46;4.00;;;1.90;;
15063;SDS011;7631;52.088;5.088;2022-11-24T16:17:11;4.80;;;1.80;;
15063;SDS011;7631;52.088;5.088;2022-11-24T16:19:36;4.77;;;1.73;;
15063;SDS011;7631;52.088;5.088;2022-11-24T16:22:02;2.60;;;1.40;;
15063;SDS011;7631;52.088;5.088;2022-11-24T16:24:27;4.50;;;1.87;;
15063;SDS011;7631;52.088;5.088;2022-11-24T16:26:52;5.30;;;1.50;;
15063;SDS011;7631;52.088;5.088;2022-11-24T16:29:17;6.13;;;1.70;;
15063;SDS011;7631;52.088;5.088;2022-11-24T16:31:44;3.50;;;1.20;;
15063;SDS011;7631;52.088;5.088;2022-11-24T16:34:11;3.47;;;1.40;;
15063;SDS011;7631;52.088;5.088;2022-11-24T16:36:36;6.73;;;1.93;;
15063;SDS011;7631;52.088;5.088;2022-11-24T16:39:01;4.60;;;1.70;;
15063;SDS011;7631;52.088;5.088;2022-11-24T16:41:26;3.20;;;1.50;;
15063;SDS011;7631;52.088;5.088;2022-11-24T16:43:51;5.63;;;2.03;;
15063;SDS011;7631;52.088;5.088;2022-11-24T16:46:21;3.43;;;1.60;;